Time;durP1;ratioP1;P1;durP2;ratioP2;P2;SDS_P1;SDS_P2;PMS_P1;PMS_P2;Temp;Humidity;BMP_temperature;BMP_pressure;BME280_temperature;BME280_humidity;BME280_pressure;Samples;Min_cycle;Max_cycle;Signal;HPM_P1;HPM_P2
2021/03/30 00:00:34;;;;;;;12.77;9.68;;;8.70;84.80;;;;;;5011672;28;20034;-66
2021/03/30 00:03:00;;;;;;;13.35;10.82;;;8.70;84.70;;;;;;5012839;28;20025;-65
2021/03/30 00:05:26;;;;;;;14.82;10.55;;;8.70;84.70;;;;;;5012612;28;20017;-65
2021/03/30 00:07:51;;;;;;;17.52;10.43;;;8.70;85.00;;;;;;5011690;28;20030;-65
2021/03/30 00:10:21;;;;;;;14.15;10.82;;;8.70;85.40;;;;;;5012721;28;20026;-66
2021/03/30 00:12:47;;;;;;;14.88;11.23;;;8.60;85.70;;;;;;5011620;28;20049;-65
2021/03/30 00:15:13;;;;;;;11.82;10.23;;;8.50;86.00;;;;;;5012900;28;20065;-65
2021/03/30 00:17:39;;;;;;;13.15;11.35;;;8.50;86.30;;;;;;5011120;28;20018;-66
2021/03/30 00:20:13;;;;;;;13.60;10.73;;;8.40;86.50;;;;;;5012363;28;20034;-65
2021/03/30 00:22:38;;;;;;;15.73;11.15;;;8.30;86.80;;;;;;5013049;28;20466;-66
2021/03/30 00:25:06;;;;;;;12.88;11.18;;;8.20;87.00;;;;;;5011869;28;20064;-66
2021/03/30 00:27:31;;;;;;;13.95;11.82;;;8.20;87.20;;;;;;5012979;28;20049;-66
2021/03/30 00:29:57;;;;;;;15.32;11.18;;;8.10;87.60;;;;;;5012336;28;20431;-65
2021/03/30 00:32:22;;;;;;;17.15;12.85;;;8.00;87.70;;;;;;5012220;28;20029;-65
2021/03/30 00:34:48;;;;;;;16.92;12.63;;;8.00;87.80;;;;;;5012488;28;20022;-65
2021/03/30 00:37:14;;;;;;;19.63;13.13;;;8.00;87.80;;;;;;5011354;28;20124;-65
2021/03/30 00:39:39;;;;;;;15.18;11.48;;;7.90;87.80;;;;;;5012349;28;20030;-66
2021/03/30 00:42:05;;;;;;;16.08;11.50;;;7.90;87.90;;;;;;5012550;28;20182;-66
2021/03/30 00:44:31;;;;;;;14.35;11.43;;;7.90;88.00;;;;;;5012697;28;20540;-67
2021/03/30 00:46:57;;;;;;;14.52;11.07;;;7.90;88.10;;;;;;5011622;28;20021;-66
2021/03/30 00:49:23;;;;;;;14.63;11.13;;;7.90;88.30;;;;;;5012665;28;20525;-66
2021/03/30 00:51:49;;;;;;;18.08;12.40;;;7.90;88.50;;;;;;5012298;28;20018;-67
2021/03/30 00:54:15;;;;;;;15.65;12.30;;;7.80;88.60;;;;;;5012169;28;20037;-66
2021/03/30 00:56:42;;;;;;;16.63;11.77;;;7.80;88.80;;;;;;5012613;28;20026;-66
2021/03/30 00:59:08;;;;;;;17.25;12.63;;;7.70;88.90;;;;;;5012279;28;20104;-66
2021/03/30 01:01:33;;;;;;;15.68;11.38;;;7.70;89.00;;;;;;5011666;28;20117;-67
2021/03/30 01:03:59;;;;;;;15.07;11.80;;;7.70;89.10;;;;;;5012196;28;20030;-66
2021/03/30 01:06:25;;;;;;;16.15;12.57;;;7.70;89.30;;;;;;5010599;28;20133;-65
2021/03/30 01:09:17;;;;;;;17.00;12.82;;;7.60;89.50;;;;;;5012079;28;20030;-65
2021/03/30 01:12:19;;;;;;;18.52;12.82;;;7.50;89.80;;;;;;5012513;28;20034;-66
2021/03/30 01:15:04;;;;;;;16.95;12.02;;;7.40;89.80;;;;;;5011834;28;20034;-66
2021/03/30 01:17:41;;;;;;;15.07;12.55;;;7.40;89.80;;;;;;5012439;28;20025;-66
2021/03/30 01:20:27;;;;;;;18.08;12.85;;;7.30;89.90;;;;;;5012058;28;20030;-65
2021/03/30 01:23:25;;;;;;;17.95;13.02;;;7.30;90.00;;;;;;5012092;28;20382;-66
2021/03/30 01:26:16;;;;;;;20.77;12.55;;;7.20;90.10;;;;;;5011948;28;20078;-66
2021/03/30 01:29:00;;;;;;;19.10;13.35;;;7.20;90.10;;;;;;5011748;28;20033;-66
2021/03/30 01:31:28;;;;;;;18.38;13.00;;;7.20;90.20;;;;;;5012151;28;20030;-66
2021/03/30 01:33:56;;;;;;;21.67;14.02;;;7.10;90.20;;;;;;5012051;28;20022;-66
2021/03/30 01:36:22;;;;;;;15.90;12.32;;;7.10;90.20;;;;;;5011697;28;20028;-65
2021/03/30 01:38:48;;;;;;;13.77;11.38;;;7.10;90.30;;;;;;5011998;28;20105;-65
2021/03/30 01:41:15;;;;;;;17.08;12.90;;;7.00;90.30;;;;;;5012349;28;20076;-66
2021/03/30 01:43:46;;;;;;;20.50;14.45;;;7.00;90.40;;;;;;5011685;28;20105;-65
2021/03/30 01:46:15;;;;;;;15.25;12.40;;;7.00;90.40;;;;;;5012067;28;20026;-66
2021/03/30 01:48:42;;;;;;;17.90;13.35;;;6.90;90.50;;;;;;5012617;28;20034;-66
2021/03/30 01:51:11;;;;;;;20.55;14.40;;;6.90;90.50;;;;;;5009123;28;20022;-66
2021/03/30 01:53:37;;;;;;;21.13;15.65;;;6.90;90.60;;;;;;4995162;28;20481;-67
2021/03/30 01:56:05;;;;;;;17.88;13.35;;;6.90;90.70;;;;;;5003254;28;20459;-65
2021/03/30 01:58:31;;;;;;;27.05;13.68;;;6.80;90.70;;;;;;5014453;28;20029;-65
2021/03/30 02:00:59;;;;;;;21.75;14.45;;;6.80;90.80;;;;;;5014962;28;20482;-65
2021/03/30 02:03:26;;;;;;;17.92;13.23;;;6.70;90.90;;;;;;5015050;28;20029;-67
2021/03/30 02:05:57;;;;;;;17.40;13.07;;;6.70;90.90;;;;;;5023573;28;20071;-65
2021/03/30 02:08:25;;;;;;;18.65;12.93;;;6.70;90.90;;;;;;5024992;28;20389;-66
2021/03/30 02:10:54;;;;;;;18.13;13.73;;;6.70;90.90;;;;;;5015615;28;20014;-66
2021/03/30 02:16:15;;;;;;;19.90;13.35;;;6.60;91.00;;;;;;5016483;28;20493;-65
2021/03/30 02:18:45;;;;;;;19.30;14.18;;;6.60;91.10;;;;;;5015566;28;20030;-66
2021/03/30 02:21:17;;;;;;;22.13;14.00;;;6.50;91.10;;;;;;5003363;28;20037;-66
2021/03/30 02:23:44;;;;;;;19.25;13.60;;;6.50;91.20;;;;;;5001096;28;20029;-66
2021/03/30 02:26:10;;;;;;;20.60;13.88;;;6.40;91.20;;;;;;5003802;28;20030;-66
2021/03/30 02:31:12;;;;;;;20.30;13.98;;;6.40;91.30;;;;;;4997246;28;20026;-66
2021/03/30 02:33:39;;;;;;;21.98;14.90;;;6.30;91.30;;;;;;4993447;28;20030;-66
2021/03/30 02:36:05;;;;;;;25.88;14.18;;;6.30;91.40;;;;;;4993398;28;20101;-66
2021/03/30 02:38:33;;;;;;;20.95;14.23;;;6.30;91.40;;;;;;4994476;28;20026;-66
2021/03/30 02:40:59;;;;;;;19.40;13.77;;;6.20;91.40;;;;;;4995439;28;20088;-65
2021/03/30 02:43:26;;;;;;;19.23;13.05;;;6.20;91.50;;;;;;4995640;28;20030;-64
2021/03/30 02:45:53;;;;;;;19.65;14.07;;;6.20;91.50;;;;;;4993617;28;20050;-65
2021/03/30 02:48:21;;;;;;;19.83;14.13;;;6.10;91.60;;;;;;4994008;28;20072;-65
2021/03/30 02:50:48;;;;;;;22.20;14.40;;;6.10;91.60;;;;;;4994893;28;20489;-65
2021/03/30 02:53:14;;;;;;;16.40;12.60;;;6.10;91.60;;;;;;4994572;28;20444;-65
2021/03/30 02:55:41;;;;;;;18.15;13.15;;;6.10;91.60;;;;;;4994908;28;20034;-65
2021/03/30 02:58:08;;;;;;;21.02;14.90;;;6.00;91.70;;;;;;4995308;28;20018;-65
2021/03/30 03:00:37;;;;;;;21.33;14.77;;;6.00;91.70;;;;;;4991703;28;20105;-65
2021/03/30 03:03:04;;;;;;;24.55;14.85;;;6.00;91.70;;;;;;4995325;28;20041;-65
2021/03/30 03:05:29;;;;;;;23.30;15.50;;;6.00;91.80;;;;;;4994619;28;20015;-66
2021/03/30 03:07:55;;;;;;;20.65;14.93;;;6.00;91.80;;;;;;4994219;28;20034;-66
2021/03/30 03:10:22;;;;;;;21.42;14.25;;;6.00;91.80;;;;;;4993676;28;20048;-65
2021/03/30 03:12:50;;;;;;;20.02;14.02;;;6.00;91.90;;;;;;4994771;28;20106;-66
2021/03/30 03:15:17;;;;;;;21.27;14.57;;;6.00;91.90;;;;;;4994326;28;20038;-66
2021/03/30 03:17:44;;;;;;;21.65;14.85;;;5.90;91.90;;;;;;4994555;28;20026;-66
2021/03/30 03:20:11;;;;;;;23.58;13.85;;;5.90;92.00;;;;;;4993970;28;20031;-66
2021/03/30 03:22:38;;;;;;;18.52;13.85;;;5.90;91.90;;;;;;4994542;28;20030;-67
2021/03/30 03:25:07;;;;;;;17.50;13.27;;;5.90;92.00;;;;;;4993405;28;20022;-66
2021/03/30 03:27:34;;;;;;;20.73;14.50;;;5.90;92.00;;;;;;4992466;28;20033;-66
2021/03/30 03:30:04;;;;;;;23.27;14.65;;;5.90;92.00;;;;;;4994419;28;20494;-66
2021/03/30 03:32:31;;;;;;;19.95;14.02;;;5.80;92.10;;;;;;4994402;28;20031;-66
2021/03/30 03:34:57;;;;;;;19.83;14.57;;;5.80;92.10;;;;;;4993888;28;20526;-65
2021/03/30 03:37:22;;;;;;;20.35;14.23;;;5.70;92.10;;;;;;4994491;28;20161;-66
2021/03/30 03:39:48;;;;;;;21.80;15.05;;;5.70;92.20;;;;;;4994021;28;20022;-65
2021/03/30 03:42:13;;;;;;;27.02;15.18;;;5.70;92.20;;;;;;4993763;28;20014;-66
2021/03/30 03:44:39;;;;;;;23.23;15.85;;;5.70;92.20;;;;;;4994104;28;20475;-66
2021/03/30 03:47:04;;;;;;;21.05;15.27;;;5.70;92.30;;;;;;4994440;28;20026;-65
2021/03/30 03:49:30;;;;;;;21.20;16.00;;;5.60;92.30;;;;;;4993249;28;20038;-65
2021/03/30 03:52:05;;;;;;;25.10;16.27;;;5.60;92.30;;;;;;4994157;28;20034;-65
2021/03/30 03:54:32;;;;;;;25.77;16.33;;;5.60;92.30;;;;;;4993798;28;20033;-65
2021/03/30 03:57:11;;;;;;;22.35;15.40;;;5.60;92.30;;;;;;4993691;28;20032;-65
2021/03/30 03:59:39;;;;;;;22.00;14.77;;;5.50;92.40;;;;;;4992656;28;20054;-65
2021/03/30 04:02:09;;;;;;;21.15;14.60;;;5.50;92.40;;;;;;4993956;28;20050;-65
2021/03/30 04:05:04;;;;;;;21.42;15.50;;;5.40;92.40;;;;;;4993070;28;20113;-66
2021/03/30 04:07:39;;;;;;;26.38;15.38;;;5.40;92.50;;;;;;4993814;28;20022;-66
2021/03/30 04:10:07;;;;;;;20.02;14.65;;;5.40;92.50;;;;;;4993195;28;20046;-65
2021/03/30 04:12:33;;;;;;;24.52;15.38;;;5.40;92.50;;;;;;4993428;28;20118;-65
2021/03/30 04:14:59;;;;;;;24.38;15.38;;;5.30;92.50;;;;;;4993891;28;20061;-65
2021/03/30 04:17:25;;;;;;;23.35;15.25;;;5.30;92.60;;;;;;4993078;28;20058;-66
2021/03/30 04:19:51;;;;;;;21.98;15.63;;;5.30;92.60;;;;;;4993916;28;20049;-65
2021/03/30 04:22:17;;;;;;;24.00;16.13;;;5.30;92.60;;;;;;4993770;28;20494;-65
2021/03/30 04:24:44;;;;;;;22.63;16.17;;;5.30;92.70;;;;;;4992809;28;20034;-66
2021/03/30 04:27:14;;;;;;;23.35;15.95;;;5.30;92.70;;;;;;4993633;28;20501;-66
2021/03/30 04:29:41;;;;;;;24.98;15.43;;;5.20;92.70;;;;;;4993317;28;20034;-66
2021/03/30 04:32:10;;;;;;;27.08;17.05;;;5.20;92.70;;;;;;4992520;28;20440;-65
2021/03/30 04:34:36;;;;;;;22.77;16.10;;;5.20;92.70;;;;;;5006243;28;20030;-66
2021/03/30 04:37:03;;;;;;;24.48;16.40;;;5.20;92.80;;;;;;5002771;28;20033;-65
2021/03/30 04:39:28;;;;;;;24.98;15.45;;;5.20;92.80;;;;;;4991583;28;20026;-66
2021/03/30 04:41:54;;;;;;;24.20;15.77;;;5.20;92.80;;;;;;5009792;28;20022;-65
2021/03/30 04:44:19;;;;;;;23.92;15.98;;;5.20;92.80;;;;;;5014130;28;20037;-65
2021/03/30 04:46:45;;;;;;;25.95;15.80;;;5.20;92.80;;;;;;5030861;28;20368;-65
2021/03/30 04:49:11;;;;;;;27.70;17.60;;;5.10;92.80;;;;;;5031805;28;20512;-65
2021/03/30 04:51:37;;;;;;;23.60;15.70;;;5.10;92.90;;;;;;5031849;28;20033;-64
2021/03/30 04:54:02;;;;;;;25.25;16.75;;;5.10;92.90;;;;;;5032943;28;20036;-64
2021/03/30 04:56:28;;;;;;;23.55;15.95;;;5.10;92.90;;;;;;5032348;28;20026;-64
2021/03/30 04:58:53;;;;;;;27.25;17.15;;;5.10;93.00;;;;;;5032042;28;20043;-64
2021/03/30 05:01:19;;;;;;;24.63;15.68;;;5.10;93.00;;;;;;5032317;28;20037;-66
2021/03/30 05:03:44;;;;;;;29.58;18.25;;;5.10;93.00;;;;;;5030927;28;20033;-65
2021/03/30 05:06:10;;;;;;;25.38;17.73;;;5.10;93.00;;;;;;5031814;28;20025;-65
2021/03/30 05:08:36;;;;;;;27.15;17.15;;;5.10;93.00;;;;;;5032269;28;20116;-65
2021/03/30 05:11:01;;;;;;;26.25;17.00;;;5.10;93.00;;;;;;5032579;28;20532;-65
2021/03/30 05:13:27;;;;;;;26.33;17.73;;;5.10;93.00;;;;;;5031684;28;20026;-65
2021/03/30 05:15:52;;;;;;;28.23;18.08;;;5.10;93.10;;;;;;5032464;28;20440;-64
2021/03/30 05:18:18;;;;;;;27.08;16.70;;;5.10;93.10;;;;;;5032365;28;20020;-65
2021/03/30 05:20:44;;;;;;;28.35;17.45;;;5.10;93.10;;;;;;5014343;28;20390;-65
2021/03/30 05:23:10;;;;;;;31.23;18.02;;;5.10;93.10;;;;;;5009414;28;20022;-64
2021/03/30 05:25:36;;;;;;;26.50;17.50;;;5.10;93.10;;;;;;4999981;28;20037;-64
2021/03/30 05:28:03;;;;;;;26.67;16.85;;;5.10;93.10;;;;;;5001119;28;20041;-64
2021/03/30 05:30:28;;;;;;;32.50;16.60;;;5.10;93.50;;;;;;5008342;28;20109;-64
2021/03/30 05:32:54;;;;;;;29.90;18.35;;;5.20;93.20;;;;;;4996768;28;20022;-64
2021/03/30 05:35:19;;;;;;;25.05;16.48;;;5.10;93.10;;;;;;4998644;28;20029;-65
2021/03/30 05:37:45;;;;;;;27.55;16.15;;;5.20;93.10;;;;;;5004853;28;20034;-64
2021/03/30 05:40:13;;;;;;;26.92;16.58;;;5.20;93.10;;;;;;5014611;28;20026;-65
2021/03/30 05:42:39;;;;;;;28.75;17.58;;;5.30;93.10;;;;;;5006368;28;20018;-65
2021/03/30 05:45:07;;;;;;;23.38;15.25;;;5.30;93.20;;;;;;5008257;28;20096;-66
2021/03/30 05:47:33;;;;;;;29.73;18.23;;;5.20;93.10;;;;;;5006186;28;20081;-65
2021/03/30 05:50:00;;;;;;;28.30;19.23;;;5.30;93.20;;;;;;5012346;28;20034;-66
2021/03/30 05:52:42;;;;;;;25.23;16.27;;;5.40;93.20;;;;;;5014029;28;20036;-66
2021/03/30 05:55:09;;;;;;;28.98;17.38;;;5.40;93.20;;;;;;5009189;28;20033;-65
2021/03/30 05:57:37;;;;;;;26.67;17.52;;;5.40;93.20;;;;;;4994825;28;20022;-65
2021/03/30 06:00:04;;;;;;;28.48;19.20;;;5.50;93.20;;;;;;4994885;28;20467;-65
2021/03/30 06:02:39;;;;;;;30.75;18.70;;;5.60;93.20;;;;;;4994965;28;20372;-66
2021/03/30 06:05:06;;;;;;;25.50;17.60;;;5.60;93.20;;;;;;5007677;28;20038;-65
2021/03/30 06:07:31;;;;;;;26.20;17.00;;;5.70;93.20;;;;;;5015502;28;20018;-66
2021/03/30 06:09:58;;;;;;;26.38;17.05;;;5.80;93.20;;;;;;5013676;28;20042;-66
2021/03/30 06:12:24;;;;;;;29.05;17.65;;;5.80;93.20;;;;;;5015743;28;20025;-64
2021/03/30 06:14:49;;;;;;;30.27;17.83;;;5.90;93.10;;;;;;5003458;28;20034;-65
2021/03/30 06:17:16;;;;;;;30.02;18.52;;;6.00;93.10;;;;;;4995161;28;20502;-65
2021/03/30 06:19:57;;;;;;;30.77;18.83;;;6.10;93.10;;;;;;5003318;28;20029;-64
2021/03/30 06:22:26;;;;;;;32.90;18.90;;;6.20;93.10;;;;;;5008966;28;20033;-66
2021/03/30 06:24:53;;;;;;;28.20;17.83;;;6.40;93.00;;;;;;5014102;28;20026;-65
2021/03/30 06:27:27;;;;;;;32.85;19.58;;;6.50;92.90;;;;;;5006962;28;20033;-66
2021/03/30 06:29:56;;;;;;;32.55;20.50;;;6.70;92.90;;;;;;4998652;28;20093;-67
2021/03/30 06:32:24;;;;;;;30.35;18.88;;;6.80;92.80;;;;;;5009899;28;20076;-67
2021/03/30 06:34:55;;;;;;;31.27;19.85;;;7.00;92.70;;;;;;5013977;28;20539;-67
2021/03/30 06:37:27;;;;;;;30.95;20.92;;;7.10;92.60;;;;;;5013043;28;20022;-66
2021/03/30 06:39:54;;;;;;;36.05;20.13;;;7.20;92.50;;;;;;5014512;28;20467;-67
2021/03/30 06:42:35;;;;;;;30.42;18.73;;;7.40;92.40;;;;;;5012918;28;20033;-68
2021/03/30 06:45:01;;;;;;;30.90;20.07;;;7.60;92.30;;;;;;5006743;28;20015;-67
2021/03/30 06:47:37;;;;;;;31.02;20.02;;;7.80;92.10;;;;;;4992884;28;20042;-68
2021/03/30 06:50:09;;;;;;;31.02;20.63;;;7.90;91.90;;;;;;4994053;28;20034;-65
2021/03/30 06:52:37;;;;;;;31.55;20.92;;;8.00;91.70;;;;;;4993675;28;20018;-62
2021/03/30 06:55:07;;;;;;;31.38;20.73;;;8.20;91.50;;;;;;4994744;28;20058;-63
2021/03/30 06:57:47;;;;;;;35.08;22.52;;;8.30;91.30;;;;;;4994291;28;20030;-63
2021/03/30 07:00:28;;;;;;;29.83;20.83;;;8.50;91.10;;;;;;4992540;28;20049;-63
2021/03/30 07:02:56;;;;;;;35.33;20.23;;;8.70;90.90;;;;;;4994733;28;20046;-67
2021/03/30 07:05:39;;;;;;;29.70;19.58;;;8.80;90.70;;;;;;5007543;28;20491;-68
2021/03/30 07:08:08;;;;;;;31.52;21.17;;;9.00;90.50;;;;;;5011356;28;20074;-68
2021/03/30 07:10:36;;;;;;;41.35;21.65;;;9.10;90.30;;;;;;5012492;28;20030;-68
2021/03/30 07:13:03;;;;;;;33.55;20.70;;;9.30;90.10;;;;;;5012613;28;20022;-67
2021/03/30 07:15:29;;;;;;;35.38;22.33;;;9.40;90.10;;;;;;5013609;28;20462;-67
2021/03/30 07:18:03;;;;;;;32.38;21.80;;;9.50;89.40;;;;;;5013823;28;20018;-69
2021/03/30 07:20:41;;;;;;;32.70;22.23;;;9.60;88.80;;;;;;5002760;28;20030;-67
2021/03/30 07:23:11;;;;;;;34.08;22.25;;;9.70;88.20;;;;;;4995150;28;20037;-65
2021/03/30 07:25:44;;;;;;;34.97;22.25;;;9.90;87.70;;;;;;5001722;28;20101;-65
2021/03/30 07:28:16;;;;;;;34.38;22.00;;;10.00;87.40;;;;;;4998599;28;20527;-66
2021/03/30 07:30:44;;;;;;;;;;;10.10;87.10;;;;;;4993933;28;20041;-69
2021/03/30 07:33:37;;;;;;;34.20;22.45;;;10.20;87.00;;;;;;4994127;28;20381;-65
2021/03/30 07:36:04;;;;;;;33.88;21.88;;;10.30;86.30;;;;;;5011445;28;20109;-64
2021/03/30 07:38:39;;;;;;;35.92;23.02;;;10.40;86.30;;;;;;5013717;28;20370;-63
2021/03/30 07:41:05;;;;;;;32.40;22.33;;;10.50;85.80;;;;;;5013227;28;20087;-65
2021/03/30 07:43:32;;;;;;;32.92;21.08;;;10.60;85.20;;;;;;5006171;28;20419;-66
2021/03/30 07:46:02;;;;;;;33.88;22.88;;;10.60;84.80;;;;;;4993879;28;20025;-67
2021/03/30 07:48:30;;;;;;;37.50;23.48;;;10.70;84.30;;;;;;4993344;28;20034;-65
2021/03/30 07:51:08;;;;;;;35.20;23.45;;;10.80;84.00;;;;;;4994301;28;20285;-66
2021/03/30 07:53:40;;;;;;;33.65;21.73;;;10.90;83.60;;;;;;4993820;28;20467;-65
2021/03/30 07:56:06;;;;;;;;;;;11.00;83.20;;;;;;4994026;28;20033;-65
2021/03/30 07:58:40;;;;;;;35.70;23.15;;;11.20;83.30;;;;;;4993801;28;20009;-64
2021/03/30 08:01:06;;;;;;;32.80;22.52;;;11.30;82.60;;;;;;4993917;28;20558;-64
2021/03/30 08:03:34;;;;;;;34.63;22.45;;;11.40;82.10;;;;;;4993190;28;20022;-65
2021/03/30 08:06:18;;;;;;;37.38;23.23;;;11.50;81.70;;;;;;4994142;28;20022;-65
2021/03/30 08:08:59;;;;;;;36.75;22.75;;;11.60;80.80;;;;;;4992910;28;20534;-66
2021/03/30 08:11:43;;;;;;;33.22;22.20;;;11.70;80.70;;;;;;4993939;28;20033;-65
2021/03/30 08:14:16;;;;;;;36.83;23.25;;;11.80;80.50;;;;;;4994118;28;20113;-66
2021/03/30 08:16:43;;;;;;;34.95;21.25;;;12.00;80.30;;;;;;4992977;28;20153;-65
2021/03/30 08:19:12;;;;;;;31.10;21.85;;;12.10;80.00;;;;;;4993762;28;20098;-64
2021/03/30 08:21:57;;;;;;;34.97;22.98;;;12.30;79.40;;;;;;4993313;28;20034;-64
2021/03/30 08:24:27;;;;;;;37.45;23.33;;;12.40;79.00;;;;;;4992889;28;20034;-63
2021/03/30 08:26:53;;;;;;;34.17;22.80;;;12.50;79.00;;;;;;4993589;28;20022;-63
2021/03/30 08:29:22;;;;;;;33.35;23.42;;;12.60;78.60;;;;;;4991937;28;20042;-63
2021/03/30 08:31:50;;;;;;;31.98;21.65;;;12.70;78.60;;;;;;4991078;28;20481;-66
2021/03/30 08:34:24;;;;;;;30.08;20.92;;;12.80;78.70;;;;;;4993379;28;20041;-65
2021/03/30 08:36:51;;;;;;;33.25;22.85;;;12.80;78.30;;;;;;4992620;28;20112;-66
2021/03/30 08:39:23;;;;;;;34.05;22.58;;;12.80;78.10;;;;;;4993229;28;20029;-64
2021/03/30 08:42:07;;;;;;;36.35;22.48;;;12.90;78.20;;;;;;4992787;28;20493;-66
2021/03/30 08:44:56;;;;;;;33.28;22.33;;;13.00;77.90;;;;;;4992238;28;20031;-66
2021/03/30 08:47:40;;;;;;;36.65;23.35;;;13.10;77.80;;;;;;4993274;28;20022;-65
2021/03/30 08:50:27;;;;;;;32.45;21.98;;;13.20;77.00;;;;;;4993089;28;20030;-64
2021/03/30 08:52:54;;;;;;;30.20;21.73;;;13.20;77.20;;;;;;4992616;28;20050;-66
2021/03/30 08:55:37;;;;;;;36.47;24.20;;;13.40;77.30;;;;;;4991960;28;20026;-65
2021/03/30 08:58:04;;;;;;;31.00;22.27;;;13.50;77.10;;;;;;4991795;28;20118;-64
2021/03/30 09:00:30;;;;;;;34.92;23.70;;;13.50;77.10;;;;;;4991598;28;20022;-65
2021/03/30 09:03:00;;;;;;;32.97;23.70;;;13.60;76.80;;;;;;4992867;28;20104;-65
2021/03/30 09:05:26;;;;;;;37.60;23.25;;;13.60;76.50;;;;;;4990888;28;20375;-63
2021/03/30 09:07:53;;;;;;;38.20;24.60;;;13.60;76.60;;;;;;4993192;28;20037;-64
2021/03/30 09:10:20;;;;;;;38.58;25.25;;;13.70;76.40;;;;;;4992886;28;20535;-64
2021/03/30 09:12:46;;;;;;;33.05;23.23;;;13.70;76.50;;;;;;4990848;28;20109;-65
2021/03/30 09:15:14;;;;;;;34.08;22.63;;;13.70;76.70;;;;;;4992950;28;20537;-65
2021/03/30 09:18:00;;;;;;;34.08;24.08;;;13.80;77.10;;;;;;4991338;28;20463;-67
2021/03/30 09:20:28;;;;;;;38.42;23.40;;;13.80;76.60;;;;;;4991819;28;20395;-66
2021/03/30 09:22:57;;;;;;;37.42;24.38;;;13.90;76.40;;;;;;4993272;28;20018;-65
2021/03/30 09:25:32;;;;;;;37.70;24.42;;;14.00;76.10;;;;;;4993100;28;20050;-65
2021/03/30 09:27:59;;;;;;;40.22;24.63;;;14.10;75.70;;;;;;4992241;28;20094;-63
2021/03/30 09:30:25;;;;;;;34.72;23.30;;;14.30;76.10;;;;;;4992732;28;20257;-64
2021/03/30 09:32:54;;;;;;;38.20;25.25;;;14.40;75.80;;;;;;4992109;28;20030;-63
2021/03/30 09:35:22;;;;;;;37.58;23.00;;;14.50;75.40;;;;;;4992870;28;20027;-63
2021/03/30 09:37:56;;;;;;;31.80;22.02;;;14.60;75.10;;;;;;4992696;28;20470;-64
2021/03/30 09:40:25;;;;;;;34.20;22.05;;;14.70;74.30;;;;;;4992241;28;20024;-64
2021/03/30 09:42:52;;;;;;;37.00;22.85;;;14.80;73.60;;;;;;4992693;28;20097;-63
2021/03/30 09:45:27;;;;;;;36.30;23.25;;;15.00;71.70;;;;;;4991516;28;20417;-65
2021/03/30 09:47:54;;;;;;;36.95;21.58;;;15.10;70.20;;;;;;4992199;28;20081;-64
2021/03/30 09:50:22;;;;;;;32.22;22.85;;;15.20;70.00;;;;;;4991258;28;20022;-65
2021/03/30 09:52:49;;;;;;;31.38;20.90;;;15.30;69.10;;;;;;4992451;28;20471;-64
2021/03/30 09:55:33;;;;;;;31.33;19.42;;;15.50;68.50;;;;;;4991822;28;20051;-65
2021/03/30 09:58:11;;;;;;;31.90;19.30;;;15.50;67.60;;;;;;4992582;28;20019;-64
2021/03/30 10:00:41;;;;;;;25.65;17.30;;;15.70;65.70;;;;;;4989557;28;20027;-67
2021/03/30 10:03:09;;;;;;;26.98;16.10;;;15.80;63.40;;;;;;4992752;28;20505;-64
2021/03/30 10:05:36;;;;;;;26.83;17.20;;;15.90;62.50;;;;;;4992534;28;20058;-67
2021/03/30 10:08:02;;;;;;;28.55;17.85;;;16.00;62.40;;;;;;4991866;28;20033;-64
2021/03/30 10:10:46;;;;;;;23.75;15.52;;;16.10;62.30;;;;;;4994527;28;20046;-64
2021/03/30 10:13:23;;;;;;;23.45;14.75;;;16.20;61.10;;;;;;4994119;28;20058;-65
2021/03/30 10:15:50;;;;;;;20.08;12.65;;;16.30;59.10;;;;;;4995630;28;20053;-64
2021/03/30 10:18:17;;;;;;;21.23;12.68;;;16.40;57.30;;;;;;4995911;28;20037;-64
2021/03/30 10:20:47;;;;;;;21.75;14.90;;;16.50;56.20;;;;;;4994682;28;20443;-65
2021/03/30 10:23:17;;;;;;;22.60;14.27;;;16.60;54.10;;;;;;4995783;28;20094;-65
2021/03/30 10:25:43;;;;;;;23.13;14.18;;;16.70;54.50;;;;;;4995256;28;20083;-66
2021/03/30 10:28:09;;;;;;;19.13;14.15;;;16.80;55.10;;;;;;4995151;28;20435;-64
2021/03/30 10:30:41;;;;;;;22.52;13.02;;;16.90;54.70;;;;;;4994022;28;20037;-65
2021/03/30 10:33:11;;;;;;;24.85;14.55;;;16.90;54.20;;;;;;4994257;28;20081;-65
2021/03/30 10:35:38;;;;;;;19.58;13.68;;;16.90;54.20;;;;;;4994577;28;20019;-64
2021/03/30 10:38:03;;;;;;;23.90;13.98;;;17.00;53.80;;;;;;4994224;28;20025;-64
2021/03/30 10:40:38;;;;;;;27.63;15.38;;;17.00;53.90;;;;;;4995203;28;20026;-64
2021/03/30 10:43:16;;;;;;;21.00;14.90;;;17.00;53.60;;;;;;4995115;28;20031;-66
2021/03/30 10:45:42;;;;;;;22.73;14.45;;;17.10;53.70;;;;;;4995048;28;20081;-65
2021/03/30 10:48:08;;;;;;;21.95;14.18;;;17.20;52.60;;;;;;4995100;28;20038;-65
2021/03/30 10:50:34;;;;;;;25.38;15.63;;;17.30;52.20;;;;;;4994444;28;20081;-64
2021/03/30 10:52:59;;;;;;;23.80;15.18;;;17.40;51.90;;;;;;4995310;28;20022;-65
2021/03/30 10:55:26;;;;;;;25.15;15.52;;;17.40;51.40;;;;;;4994543;28;20074;-65
2021/03/30 10:57:53;;;;;;;25.42;15.48;;;17.40;51.10;;;;;;4995479;28;20026;-65
2021/03/30 11:00:19;;;;;;;22.80;14.93;;;17.50;50.60;;;;;;4995249;28;20357;-64
2021/03/30 11:02:44;;;;;;;21.10;13.98;;;17.50;49.80;;;;;;4994194;28;20042;-64
2021/03/30 11:05:11;;;;;;;25.75;15.85;;;17.50;49.70;;;;;;4995150;28;20045;-64
2021/03/30 11:07:37;;;;;;;23.13;15.68;;;17.50;49.80;;;;;;4994846;28;20026;-65
2021/03/30 11:10:08;;;;;;;25.40;16.33;;;17.50;49.30;;;;;;4994288;28;20037;-64
2021/03/30 11:12:34;;;;;;;22.55;15.85;;;17.60;49.90;;;;;;4993493;28;20026;-65
2021/03/30 11:15:00;;;;;;;22.83;15.77;;;17.70;50.00;;;;;;4995091;28;20046;-63
2021/03/30 11:17:26;;;;;;;24.98;17.23;;;17.80;49.60;;;;;;4993958;28;20026;-62
2021/03/30 11:19:51;;;;;;;25.05;16.63;;;17.90;49.60;;;;;;4994619;28;20030;-65
2021/03/30 11:22:17;;;;;;;25.95;17.08;;;17.90;49.10;;;;;;4993612;28;20379;-65
2021/03/30 11:24:43;;;;;;;25.20;17.63;;;18.00;48.50;;;;;;4993960;28;20497;-65
2021/03/30 11:27:09;;;;;;;27.48;18.88;;;18.00;48.90;;;;;;4994755;28;20088;-65
2021/03/30 11:34:55;;;;;;;27.85;18.48;;;18.20;48.40;;;;;;4994378;28;20077;-66
2021/03/30 11:39:57;;;;;;;22.45;15.63;;;18.30;48.30;;;;;;4993803;28;20034;-64
2021/03/30 11:42:24;;;;;;;25.23;16.20;;;18.40;47.90;;;;;;4993247;28;20422;-66
2021/03/30 11:44:51;;;;;;;25.45;15.50;;;18.50;47.70;;;;;;4993479;28;20030;-65
2021/03/30 11:47:16;;;;;;;23.08;15.93;;;18.50;48.00;;;;;;4994243;28;20030;-65
2021/03/30 11:49:42;;;;;;;25.83;17.92;;;18.50;47.80;;;;;;4993887;28;20034;-65
2021/03/30 11:52:08;;;;;;;28.20;17.90;;;18.60;46.90;;;;;;4993426;28;20084;-64
2021/03/30 11:54:34;;;;;;;25.73;17.90;;;18.70;46.70;;;;;;4993759;28;20045;-64
2021/03/30 11:57:00;;;;;;;27.17;18.95;;;18.70;46.40;;;;;;4994069;28;20029;-65
2021/03/30 11:59:27;;;;;;;31.73;17.67;;;18.70;47.10;;;;;;4991685;28;20084;-64
2021/03/30 12:01:53;;;;;;;21.77;15.60;;;18.80;47.50;;;;;;4992595;28;20038;-65
2021/03/30 12:04:19;;;;;;;21.15;15.23;;;18.80;46.80;;;;;;4993961;28;20109;-64
2021/03/30 12:06:44;;;;;;;23.85;15.52;;;18.80;46.50;;;;;;4991760;28;20446;-66
2021/03/30 12:09:10;;;;;;;26.75;16.30;;;18.80;47.10;;;;;;4993901;28;20026;-63
2021/03/30 12:11:36;;;;;;;22.35;15.55;;;18.90;46.40;;;;;;4993583;28;20104;-65
2021/03/30 12:14:02;;;;;;;23.20;16.27;;;19.00;46.40;;;;;;4993122;28;20030;-65
2021/03/30 12:16:28;;;;;;;21.08;14.10;;;19.00;46.30;;;;;;4993691;28;20375;-65
2021/03/30 12:18:55;;;;;;;23.58;15.55;;;19.00;45.60;;;;;;4992589;28;20065;-67
2021/03/30 12:21:22;;;;;;;23.13;13.60;;;19.00;44.80;;;;;;4993120;28;20463;-64
2021/03/30 12:23:48;;;;;;;26.33;17.35;;;19.10;44.60;;;;;;4993452;28;20069;-65
2021/03/30 12:26:14;;;;;;;27.77;18.15;;;19.10;45.30;;;;;;4993676;28;20440;-65
2021/03/30 12:28:39;;;;;;;33.75;19.92;;;19.20;45.70;;;;;;4991318;28;20092;-64
2021/03/30 12:31:05;;;;;;;29.63;19.98;;;19.30;45.90;;;;;;4993989;28;20034;-65
2021/03/30 12:33:31;;;;;;;30.13;18.63;;;19.40;46.90;;;;;;4993178;28;20023;-65
2021/03/30 12:35:56;;;;;;;34.05;21.38;;;19.50;47.30;;;;;;4992850;28;20467;-65
2021/03/30 12:38:22;;;;;;;37.03;23.02;;;19.60;47.20;;;;;;4993559;28;20022;-65
2021/03/30 12:40:48;;;;;;;37.03;23.15;;;19.70;47.50;;;;;;4993389;28;20482;-65
2021/03/30 12:43:13;;;;;;;34.70;23.20;;;19.70;48.00;;;;;;4992786;28;20031;-64
2021/03/30 12:45:39;;;;;;;35.92;24.30;;;19.70;48.40;;;;;;4991764;28;20023;-64
2021/03/30 12:48:06;;;;;;;37.85;24.38;;;19.70;49.00;;;;;;4992823;28;20033;-62
2021/03/30 12:50:33;;;;;;;39.38;24.33;;;19.70;49.40;;;;;;4992853;28;20434;-64
2021/03/30 12:52:59;;;;;;;35.63;24.58;;;19.60;49.50;;;;;;4993570;28;20026;-63
2021/03/30 12:55:25;;;;;;;33.85;22.98;;;19.60;49.90;;;;;;4992628;28;20027;-64